sensor_id;sensor_type;location;lat;lon;timestamp;P1;durP1;ratioP1;P2;durP2;ratioP2
10904;SDS011;5505;51.450;9.254;2023-12-04T00:02:26;15.87;;;11.10;;
10904;SDS011;5505;51.450;9.254;2023-12-04T00:05:13;18.33;;;9.73;;
10904;SDS011;5505;51.450;9.254;2023-12-04T00:08:00;17.47;;;11.47;;
10904;SDS011;5505;51.450;9.254;2023-12-04T00:10:47;13.40;;;8.20;;
10904;SDS011;5505;51.450;9.254;2023-12-04T00:13:35;14.40;;;8.70;;
10904;SDS011;5505;51.450;9.254;2023-12-04T00:16:24;14.87;;;8.70;;
10904;SDS011;5505;51.450;9.254;2023-12-04T00:19:11;16.40;;;8.93;;
10904;SDS011;5505;51.450;9.254;2023-12-04T00:21:58;15.37;;;9.50;;
10904;SDS011;5505;51.450;9.254;2023-12-04T00:24:45;18.30;;;10.30;;
10904;SDS011;5505;51.450;9.254;2023-12-04T00:27:32;12.27;;;8.13;;
10904;SDS011;5505;51.450;9.254;2023-12-04T00:30:20;12.87;;;8.10;;
10904;SDS011;5505;51.450;9.254;2023-12-04T00:33:08;15.03;;;9.17;;
10904;SDS011;5505;51.450;9.254;2023-12-04T00:35:56;13.47;;;8.47;;
10904;SDS011;5505;51.450;9.254;2023-12-04T00:38:43;13.17;;;8.50;;
10904;SDS011;5505;51.450;9.254;2023-12-04T00:41:31;16.40;;;9.53;;
10904;SDS011;5505;51.450;9.254;2023-12-04T00:44:18;14.00;;;9.37;;
10904;SDS011;5505;51.450;9.254;2023-12-04T00:47:05;14.17;;;8.80;;
10904;SDS011;5505;51.450;9.254;2023-12-04T00:49:54;10.73;;;7.13;;
10904;SDS011;5505;51.450;9.254;2023-12-04T00:52:41;14.27;;;8.57;;
10904;SDS011;5505;51.450;9.254;2023-12-04T00:55:28;15.43;;;8.77;;
10904;SDS011;5505;51.450;9.254;2023-12-04T00:58:15;14.43;;;10.73;;
10904;SDS011;5505;51.450;9.254;2023-12-04T01:01:03;12.70;;;9.03;;
10904;SDS011;5505;51.450;9.254;2023-12-04T01:03:50;13.87;;;9.20;;
10904;SDS011;5505;51.450;9.254;2023-12-04T01:06:38;12.53;;;8.00;;
10904;SDS011;5505;51.450;9.254;2023-12-04T01:09:25;12.93;;;8.40;;
10904;SDS011;5505;51.450;9.254;2023-12-04T01:12:12;19.23;;;9.63;;
10904;SDS011;5505;51.450;9.254;2023-12-04T01:15:00;11.80;;;8.20;;
10904;SDS011;5505;51.450;9.254;2023-12-04T01:17:48;14.23;;;9.07;;
10904;SDS011;5505;51.450;9.254;2023-12-04T01:20:35;16.27;;;9.23;;
10904;SDS011;5505;51.450;9.254;2023-12-04T01:23:23;14.53;;;9.17;;
10904;SDS011;5505;51.450;9.254;2023-12-04T01:26:11;12.70;;;8.13;;
10904;SDS011;5505;51.450;9.254;2023-12-04T01:28:58;12.80;;;8.03;;
10904;SDS011;5505;51.450;9.254;2023-12-04T01:31:45;12.57;;;8.57;;
10904;SDS011;5505;51.450;9.254;2023-12-04T01:34:32;16.30;;;8.43;;
10904;SDS011;5505;51.450;9.254;2023-12-04T01:37:19;11.17;;;7.57;;
10904;SDS011;5505;51.450;9.254;2023-12-04T01:40:09;12.13;;;8.23;;
10904;SDS011;5505;51.450;9.254;2023-12-04T01:42:56;10.97;;;7.23;;
10904;SDS011;5505;51.450;9.254;2023-12-04T01:45:43;11.47;;;7.93;;
10904;SDS011;5505;51.450;9.254;2023-12-04T01:48:30;14.47;;;7.67;;
10904;SDS011;5505;51.450;9.254;2023-12-04T01:51:17;11.97;;;7.53;;
10904;SDS011;5505;51.450;9.254;2023-12-04T01:54:06;14.53;;;8.80;;
10904;SDS011;5505;51.450;9.254;2023-12-04T01:56:55;11.40;;;8.10;;
10904;SDS011;5505;51.450;9.254;2023-12-04T01:59:42;10.20;;;6.77;;
10904;SDS011;5505;51.450;9.254;2023-12-04T02:02:29;11.83;;;7.47;;
10904;SDS011;5505;51.450;9.254;2023-12-04T02:05:17;10.23;;;6.87;;
10904;SDS011;5505;51.450;9.254;2023-12-04T02:08:05;12.10;;;7.73;;
10904;SDS011;5505;51.450;9.254;2023-12-04T02:10:52;11.43;;;7.43;;
10904;SDS011;5505;51.450;9.254;2023-12-04T02:13:41;11.50;;;7.80;;
10904;SDS011;5505;51.450;9.254;2023-12-04T02:16:28;9.10;;;5.37;;
10904;SDS011;5505;51.450;9.254;2023-12-04T02:19:16;12.00;;;7.43;;
10904;SDS011;5505;51.450;9.254;2023-12-04T02:22:03;9.67;;;6.50;;
10904;SDS011;5505;51.450;9.254;2023-12-04T02:24:52;10.03;;;6.93;;
10904;SDS011;5505;51.450;9.254;2023-12-04T02:27:44;11.13;;;7.43;;
10904;SDS011;5505;51.450;9.254;2023-12-04T02:30:34;11.10;;;7.70;;
10904;SDS011;5505;51.450;9.254;2023-12-04T02:33:22;10.80;;;6.60;;
10904;SDS011;5505;51.450;9.254;2023-12-04T02:36:10;9.87;;;6.37;;
10904;SDS011;5505;51.450;9.254;2023-12-04T02:38:58;7.97;;;5.73;;
10904;SDS011;5505;51.450;9.254;2023-12-04T02:41:47;10.07;;;6.90;;
10904;SDS011;5505;51.450;9.254;2023-12-04T02:44:34;9.30;;;6.60;;
10904;SDS011;5505;51.450;9.254;2023-12-04T02:47:21;10.27;;;6.70;;
10904;SDS011;5505;51.450;9.254;2023-12-04T02:50:09;9.27;;;6.70;;
10904;SDS011;5505;51.450;9.254;2023-12-04T02:52:56;10.03;;;7.20;;
10904;SDS011;5505;51.450;9.254;2023-12-04T02:55:43;9.53;;;6.30;;
10904;SDS011;5505;51.450;9.254;2023-12-04T02:58:31;9.20;;;7.13;;
10904;SDS011;5505;51.450;9.254;2023-12-04T03:01:19;8.63;;;5.73;;
10904;SDS011;5505;51.450;9.254;2023-12-04T03:04:06;8.97;;;6.50;;
10904;SDS011;5505;51.450;9.254;2023-12-04T03:06:54;10.03;;;6.80;;
10904;SDS011;5505;51.450;9.254;2023-12-04T03:09:41;10.73;;;6.87;;
10904;SDS011;5505;51.450;9.254;2023-12-04T03:12:28;10.27;;;6.73;;
10904;SDS011;5505;51.450;9.254;2023-12-04T03:15:16;9.90;;;7.00;;
10904;SDS011;5505;51.450;9.254;2023-12-04T03:18:04;10.60;;;6.77;;
10904;SDS011;5505;51.450;9.254;2023-12-04T03:20:51;9.47;;;6.90;;
10904;SDS011;5505;51.450;9.254;2023-12-04T03:23:38;10.77;;;6.60;;
10904;SDS011;5505;51.450;9.254;2023-12-04T03:26:25;9.97;;;6.87;;
10904;SDS011;5505;51.450;9.254;2023-12-04T03:29:13;10.03;;;7.03;;
10904;SDS011;5505;51.450;9.254;2023-12-04T03:32:01;11.47;;;7.43;;
10904;SDS011;5505;51.450;9.254;2023-12-04T03:34:49;11.10;;;7.67;;
10904;SDS011;5505;51.450;9.254;2023-12-04T03:37:36;11.50;;;7.90;;
10904;SDS011;5505;51.450;9.254;2023-12-04T03:40:23;10.60;;;6.90;;
10904;SDS011;5505;51.450;9.254;2023-12-04T03:43:10;12.37;;;7.57;;
10904;SDS011;5505;51.450;9.254;2023-12-04T03:45:57;12.03;;;7.20;;
10904;SDS011;5505;51.450;9.254;2023-12-04T03:48:46;10.93;;;7.60;;
10904;SDS011;5505;51.450;9.254;2023-12-04T03:51:33;9.93;;;7.00;;
10904;SDS011;5505;51.450;9.254;2023-12-04T03:54:20;8.37;;;5.90;;
10904;SDS011;5505;51.450;9.254;2023-12-04T03:57:07;9.63;;;6.73;;
10904;SDS011;5505;51.450;9.254;2023-12-04T03:59:54;10.43;;;6.70;;
10904;SDS011;5505;51.450;9.254;2023-12-04T04:02:42;9.03;;;6.30;;
10904;SDS011;5505;51.450;9.254;2023-12-04T04:05:31;10.30;;;7.13;;
10904;SDS011;5505;51.450;9.254;2023-12-04T04:08:19;9.67;;;7.00;;
10904;SDS011;5505;51.450;9.254;2023-12-04T04:11:06;10.60;;;6.87;;
10904;SDS011;5505;51.450;9.254;2023-12-04T04:13:53;13.40;;;7.67;;
10904;SDS011;5505;51.450;9.254;2023-12-04T04:16:40;11.27;;;7.53;;
10904;SDS011;5505;51.450;9.254;2023-12-04T04:19:28;11.03;;;6.93;;
10904;SDS011;5505;51.450;9.254;2023-12-04T04:22:16;10.47;;;7.33;;
10904;SDS011;5505;51.450;9.254;2023-12-04T04:25:04;11.03;;;7.20;;
10904;SDS011;5505;51.450;9.254;2023-12-04T04:27:51;9.73;;;6.93;;
10904;SDS011;5505;51.450;9.254;2023-12-04T04:30:38;8.93;;;6.63;;
10904;SDS011;5505;51.450;9.254;2023-12-04T04:33:26;10.93;;;7.23;;
10904;SDS011;5505;51.450;9.254;2023-12-04T04:36:13;11.07;;;7.03;;
10904;SDS011;5505;51.450;9.254;2023-12-04T04:39:01;10.57;;;7.40;;
10904;SDS011;5505;51.450;9.254;2023-12-04T04:41:49;11.30;;;6.97;;
10904;SDS011;5505;51.450;9.254;2023-12-04T04:44:37;11.27;;;7.23;;
10904;SDS011;5505;51.450;9.254;2023-12-04T04:47:24;10.23;;;6.90;;
10904;SDS011;5505;51.450;9.254;2023-12-04T04:50:11;11.13;;;7.03;;
10904;SDS011;5505;51.450;9.254;2023-12-04T04:52:59;11.23;;;7.40;;
10904;SDS011;5505;51.450;9.254;2023-12-04T04:55:47;10.50;;;6.87;;
10904;SDS011;5505;51.450;9.254;2023-12-04T04:58:34;13.13;;;7.77;;
10904;SDS011;5505;51.450;9.254;2023-12-04T05:01:22;9.67;;;6.90;;
10904;SDS011;5505;51.450;9.254;2023-12-04T05:04:09;9.63;;;6.87;;
10904;SDS011;5505;51.450;9.254;2023-12-04T05:06:56;9.70;;;6.23;;
10904;SDS011;5505;51.450;9.254;2023-12-04T05:09:43;12.17;;;7.43;;
10904;SDS011;5505;51.450;9.254;2023-12-04T05:12:32;9.10;;;6.70;;
10904;SDS011;5505;51.450;9.254;2023-12-04T05:15:19;10.47;;;7.37;;
10904;SDS011;5505;51.450;9.254;2023-12-04T05:18:06;10.43;;;7.10;;
10904;SDS011;5505;51.450;9.254;2023-12-04T05:20:53;9.87;;;6.93;;
10904;SDS011;5505;51.450;9.254;2023-12-04T05:23:40;10.57;;;7.43;;
10904;SDS011;5505;51.450;9.254;2023-12-04T05:26:27;11.63;;;7.53;;
10904;SDS011;5505;51.450;9.254;2023-12-04T05:29:16;10.30;;;6.57;;
10904;SDS011;5505;51.450;9.254;2023-12-04T05:32:03;9.70;;;7.00;;
10904;SDS011;5505;51.450;9.254;2023-12-04T05:34:51;10.47;;;6.80;;
10904;SDS011;5505;51.450;9.254;2023-12-04T05:37:38;9.23;;;6.37;;
10904;SDS011;5505;51.450;9.254;2023-12-04T05:40:25;11.30;;;7.10;;
10904;SDS011;5505;51.450;9.254;2023-12-04T05:43:12;10.00;;;6.83;;
10904;SDS011;5505;51.450;9.254;2023-12-04T05:46:01;10.23;;;6.73;;
10904;SDS011;5505;51.450;9.254;2023-12-04T05:48:48;9.83;;;7.27;;
10904;SDS011;5505;51.450;9.254;2023-12-04T05:51:35;11.27;;;7.47;;
10904;SDS011;5505;51.450;9.254;2023-12-04T05:54:22;10.60;;;6.90;;
10904;SDS011;5505;51.450;9.254;2023-12-04T05:57:10;10.47;;;6.57;;
10904;SDS011;5505;51.450;9.254;2023-12-04T05:59:57;11.13;;;6.77;;
10904;SDS011;5505;51.450;9.254;2023-12-04T06:02:46;10.90;;;6.90;;
10904;SDS011;5505;51.450;9.254;2023-12-04T06:05:33;7.73;;;6.23;;
10904;SDS011;5505;51.450;9.254;2023-12-04T06:08:20;10.93;;;7.33;;
10904;SDS011;5505;51.450;9.254;2023-12-04T06:11:07;12.60;;;7.07;;
10904;SDS011;5505;51.450;9.254;2023-12-04T06:13:54;9.37;;;6.87;;
10904;SDS011;5505;51.450;9.254;2023-12-04T06:16:41;12.60;;;8.30;;
10904;SDS011;5505;51.450;9.254;2023-12-04T06:19:30;8.67;;;6.50;;
10904;SDS011;5505;51.450;9.254;2023-12-04T06:22:17;11.13;;;6.90;;
10904;SDS011;5505;51.450;9.254;2023-12-04T06:25:07;10.13;;;7.03;;
10904;SDS011;5505;51.450;9.254;2023-12-04T06:27:54;9.53;;;6.37;;
10904;SDS011;5505;51.450;9.254;2023-12-04T06:30:41;10.33;;;6.97;;
10904;SDS011;5505;51.450;9.254;2023-12-04T06:33:29;9.87;;;6.40;;
10904;SDS011;5505;51.450;9.254;2023-12-04T06:36:18;9.73;;;6.87;;
10904;SDS011;5505;51.450;9.254;2023-12-04T06:39:05;9.77;;;6.80;;
10904;SDS011;5505;51.450;9.254;2023-12-04T06:41:54;11.43;;;7.40;;
10904;SDS011;5505;51.450;9.254;2023-12-04T06:44:41;9.10;;;6.83;;
10904;SDS011;5505;51.450;9.254;2023-12-04T06:47:30;8.97;;;6.77;;
10904;SDS011;5505;51.450;9.254;2023-12-04T06:50:17;11.90;;;7.13;;
10904;SDS011;5505;51.450;9.254;2023-12-04T06:53:06;8.93;;;6.37;;
10904;SDS011;5505;51.450;9.254;2023-12-04T06:55:53;15.60;;;7.33;;
10904;SDS011;5505;51.450;9.254;2023-12-04T06:58:40;10.47;;;7.57;;
10904;SDS011;5505;51.450;9.254;2023-12-04T07:01:27;9.27;;;6.50;;
10904;SDS011;5505;51.450;9.254;2023-12-04T07:04:15;9.20;;;6.63;;
10904;SDS011;5505;51.450;9.254;2023-12-04T07:07:06;10.73;;;7.57;;
10904;SDS011;5505;51.450;9.254;2023-12-04T07:09:54;10.93;;;7.43;;
10904;SDS011;5505;51.450;9.254;2023-12-04T07:12:41;9.70;;;7.07;;
10904;SDS011;5505;51.450;9.254;2023-12-04T07:15:28;13.13;;;8.20;;
10904;SDS011;5505;51.450;9.254;2023-12-04T07:18:16;9.93;;;6.47;;
10904;SDS011;5505;51.450;9.254;2023-12-04T07:21:03;11.13;;;6.93;;
10904;SDS011;5505;51.450;9.254;2023-12-04T07:23:50;8.03;;;4.23;;
10904;SDS011;5505;51.450;9.254;2023-12-04T07:26:39;11.03;;;7.63;;
10904;SDS011;5505;51.450;9.254;2023-12-04T07:29:26;9.57;;;6.60;;
10904;SDS011;5505;51.450;9.254;2023-12-04T07:32:14;9.67;;;7.20;;
10904;SDS011;5505;51.450;9.254;2023-12-04T07:35:01;11.93;;;7.40;;
10904;SDS011;5505;51.450;9.254;2023-12-04T07:37:48;9.93;;;6.97;;
10904;SDS011;5505;51.450;9.254;2023-12-04T07:40:35;11.47;;;6.90;;
10904;SDS011;5505;51.450;9.254;2023-12-04T07:43:23;9.90;;;6.53;;
10904;SDS011;5505;51.450;9.254;2023-12-04T07:46:12;11.10;;;6.97;;
10904;SDS011;5505;51.450;9.254;2023-12-04T07:48:59;9.57;;;6.47;;
10904;SDS011;5505;51.450;9.254;2023-12-04T07:51:46;10.60;;;7.00;;
10904;SDS011;5505;51.450;9.254;2023-12-04T07:54:33;9.70;;;6.50;;
10904;SDS011;5505;51.450;9.254;2023-12-04T07:57:21;9.87;;;6.83;;
10904;SDS011;5505;51.450;9.254;2023-12-04T08:00:10;9.57;;;5.83;;
10904;SDS011;5505;51.450;9.254;2023-12-04T08:02:57;10.53;;;7.20;;
10904;SDS011;5505;51.450;9.254;2023-12-04T08:05:44;11.80;;;7.87;;
10904;SDS011;5505;51.450;9.254;2023-12-04T08:08:31;9.03;;;6.83;;
10904;SDS011;5505;51.450;9.254;2023-12-04T08:11:18;6.30;;;4.53;;
10904;SDS011;5505;51.450;9.254;2023-12-04T08:14:06;9.03;;;5.87;;
10904;SDS011;5505;51.450;9.254;2023-12-04T08:16:54;9.70;;;6.50;;
10904;SDS011;5505;51.450;9.254;2023-12-04T08:19:41;5.63;;;3.93;;
10904;SDS011;5505;51.450;9.254;2023-12-04T08:22:28;12.27;;;6.97;;
10904;SDS011;5505;51.450;9.254;2023-12-04T08:25:16;10.10;;;6.87;;
10904;SDS011;5505;51.450;9.254;2023-12-04T08:28:04;10.17;;;6.77;;
10904;SDS011;5505;51.450;9.254;2023-12-04T08:30:51;9.83;;;6.77;;
10904;SDS011;5505;51.450;9.254;2023-12-04T08:33:39;7.87;;;5.90;;
10904;SDS011;5505;51.450;9.254;2023-12-04T08:36:26;11.63;;;6.80;;
10904;SDS011;5505;51.450;9.254;2023-12-04T08:39:14;9.03;;;6.50;;
10904;SDS011;5505;51.450;9.254;2023-12-04T08:42:01;8.83;;;6.17;;
10904;SDS011;5505;51.450;9.254;2023-12-04T08:44:48;9.93;;;6.20;;
10904;SDS011;5505;51.450;9.254;2023-12-04T08:47:35;8.63;;;6.00;;
10904;SDS011;5505;51.450;9.254;2023-12-04T08:50:24;9.17;;;6.13;;
10904;SDS011;5505;51.450;9.254;2023-12-04T08:53:11;8.20;;;5.80;;
10904;SDS011;5505;51.450;9.254;2023-12-04T08:55:58;8.47;;;6.20;;
10904;SDS011;5505;51.450;9.254;2023-12-04T08:58:45;9.17;;;5.80;;
10904;SDS011;5505;51.450;9.254;2023-12-04T09:01:35;10.73;;;6.00;;
10904;SDS011;5505;51.450;9.254;2023-12-04T09:04:22;8.47;;;5.80;;
10904;SDS011;5505;51.450;9.254;2023-12-04T09:07:11;7.77;;;5.67;;
10904;SDS011;5505;51.450;9.254;2023-12-04T09:09:59;8.17;;;6.23;;
10904;SDS011;5505;51.450;9.254;2023-12-04T09:12:46;6.70;;;4.93;;
10904;SDS011;5505;51.450;9.254;2023-12-04T09:15:33;9.37;;;5.80;;
10904;SDS011;5505;51.450;9.254;2023-12-04T09:18:20;6.07;;;4.47;;
10904;SDS011;5505;51.450;9.254;2023-12-04T09:21:07;8.43;;;7.23;;
10904;SDS011;5505;51.450;9.254;2023-12-04T09:23:56;7.87;;;7.07;;
10904;SDS011;5505;51.450;9.254;2023-12-04T09:26:43;8.87;;;6.80;;
10904;SDS011;5505;51.450;9.254;2023-12-04T09:29:30;7.67;;;5.37;;
10904;SDS011;5505;51.450;9.254;2023-12-04T09:32:17;7.40;;;5.43;;
10904;SDS011;5505;51.450;9.254;2023-12-04T09:35:05;12.47;;;6.53;;
10904;SDS011;5505;51.450;9.254;2023-12-04T09:37:52;9.70;;;6.37;;
10904;SDS011;5505;51.450;9.254;2023-12-04T09:40:41;9.10;;;6.17;;
10904;SDS011;5505;51.450;9.254;2023-12-04T09:43:28;11.53;;;5.83;;
10904;SDS011;5505;51.450;9.254;2023-12-04T09:46:16;9.17;;;5.93;;
10904;SDS011;5505;51.450;9.254;2023-12-04T09:49:04;7.53;;;5.33;;
10904;SDS011;5505;51.450;9.254;2023-12-04T09:51:52;9.30;;;6.57;;
10904;SDS011;5505;51.450;9.254;2023-12-04T09:54:39;10.20;;;6.40;;
10904;SDS011;5505;51.450;9.254;2023-12-04T09:57:28;9.30;;;6.80;;
10904;SDS011;5505;51.450;9.254;2023-12-04T10:00:16;8.23;;;5.20;;
10904;SDS011;5505;51.450;9.254;2023-12-04T10:03:04;9.13;;;5.83;;
10904;SDS011;5505;51.450;9.254;2023-12-04T10:05:51;8.60;;;6.13;;
10904;SDS011;5505;51.450;9.254;2023-12-04T10:08:38;7.63;;;5.30;;
10904;SDS011;5505;51.450;9.254;2023-12-04T10:11:25;10.90;;;6.57;;
10904;SDS011;5505;51.450;9.254;2023-12-04T10:14:16;8.70;;;5.93;;
10904;SDS011;5505;51.450;9.254;2023-12-04T10:17:13;9.23;;;6.17;;
10904;SDS011;5505;51.450;9.254;2023-12-04T10:20:04;8.40;;;5.83;;
10904;SDS011;5505;51.450;9.254;2023-12-04T10:22:57;8.03;;;5.07;;
10904;SDS011;5505;51.450;9.254;2023-12-04T10:25:44;6.37;;;4.27;;
10904;SDS011;5505;51.450;9.254;2023-12-04T10:28:31;6.90;;;5.03;;
10904;SDS011;5505;51.450;9.254;2023-12-04T10:31:20;6.17;;;4.23;;
10904;SDS011;5505;51.450;9.254;2023-12-04T10:34:10;5.63;;;3.67;;
10904;SDS011;5505;51.450;9.254;2023-12-04T10:36:57;5.67;;;4.80;;
10904;SDS011;5505;51.450;9.254;2023-12-04T10:39:45;8.13;;;4.30;;
10904;SDS011;5505;51.450;9.254;2023-12-04T10:42:33;8.80;;;5.63;;
10904;SDS011;5505;51.450;9.254;2023-12-04T10:45:20;7.17;;;5.57;;
10904;SDS011;5505;51.450;9.254;2023-12-04T10:48:11;6.60;;;4.50;;
10904;SDS011;5505;51.450;9.254;2023-12-04T10:50:58;8.17;;;5.90;;
10904;SDS011;5505;51.450;9.254;2023-12-04T10:53:45;7.67;;;5.40;;
10904;SDS011;5505;51.450;9.254;2023-12-04T10:56:33;9.93;;;6.30;;
10904;SDS011;5505;51.450;9.254;2023-12-04T10:59:25;8.17;;;6.03;;
10904;SDS011;5505;51.450;9.254;2023-12-04T11:02:18;7.47;;;5.77;;
10904;SDS011;5505;51.450;9.254;2023-12-04T11:05:08;10.33;;;5.33;;
10904;SDS011;5505;51.450;9.254;2023-12-04T11:07:58;9.47;;;6.33;;
10904;SDS011;5505;51.450;9.254;2023-12-04T11:10:48;7.43;;;5.70;;
10904;SDS011;5505;51.450;9.254;2023-12-04T11:13:37;7.37;;;5.70;;
10904;SDS011;5505;51.450;9.254;2023-12-04T11:16:27;7.87;;;5.57;;
10904;SDS011;5505;51.450;9.254;2023-12-04T11:19:20;7.67;;;5.63;;
10904;SDS011;5505;51.450;9.254;2023-12-04T11:22:09;7.17;;;5.30;;
10904;SDS011;5505;51.450;9.254;2023-12-04T11:24:57;7.95;;;6.70;;
10904;SDS011;5505;51.450;9.254;2023-12-04T11:27:44;8.33;;;5.77;;
10904;SDS011;5505;51.450;9.254;2023-12-04T11:30:31;7.20;;;5.03;;
10904;SDS011;5505;51.450;9.254;2023-12-04T11:33:18;7.00;;;5.30;;
10904;SDS011;5505;51.450;9.254;2023-12-04T11:36:07;7.03;;;4.70;;
10904;SDS011;5505;51.450;9.254;2023-12-04T11:38:56;6.73;;;5.40;;
10904;SDS011;5505;51.450;9.254;2023-12-04T11:41:43;7.60;;;5.13;;
10904;SDS011;5505;51.450;9.254;2023-12-04T11:44:32;6.67;;;4.93;;
10904;SDS011;5505;51.450;9.254;2023-12-04T11:47:20;7.07;;;4.73;;
10904;SDS011;5505;51.450;9.254;2023-12-04T11:50:08;6.40;;;5.00;;
10904;SDS011;5505;51.450;9.254;2023-12-04T11:52:55;5.87;;;4.00;;
10904;SDS011;5505;51.450;9.254;2023-12-04T11:55:44;6.17;;;4.83;;
10904;SDS011;5505;51.450;9.254;2023-12-04T11:58:32;6.57;;;4.40;;
10904;SDS011;5505;51.450;9.254;2023-12-04T12:01:28;6.50;;;4.83;;
10904;SDS011;5505;51.450;9.254;2023-12-04T12:04:15;5.10;;;4.40;;
10904;SDS011;5505;51.450;9.254;2023-12-04T12:07:03;4.97;;;3.60;;
10904;SDS011;5505;51.450;9.254;2023-12-04T12:09:52;5.63;;;4.40;;
10904;SDS011;5505;51.450;9.254;2023-12-04T12:12:40;6.13;;;4.60;;
10904;SDS011;5505;51.450;9.254;2023-12-04T12:15:27;6.57;;;4.50;;
10904;SDS011;5505;51.450;9.254;2023-12-04T12:18:15;5.07;;;4.20;;
10904;SDS011;5505;51.450;9.254;2023-12-04T12:21:02;5.13;;;3.50;;
10904;SDS011;5505;51.450;9.254;2023-12-04T12:23:50;5.93;;;4.57;;
10904;SDS011;5505;51.450;9.254;2023-12-04T12:26:37;7.23;;;4.60;;
10904;SDS011;5505;51.450;9.254;2023-12-04T12:29:26;5.97;;;4.83;;
10904;SDS011;5505;51.450;9.254;2023-12-04T12:32:14;6.60;;;4.60;;
10904;SDS011;5505;51.450;9.254;2023-12-04T12:35:01;5.73;;;4.10;;
10904;SDS011;5505;51.450;9.254;2023-12-04T12:37:48;5.57;;;4.00;;
10904;SDS011;5505;51.450;9.254;2023-12-04T12:40:38;3.70;;;3.30;;
10904;SDS011;5505;51.450;9.254;2023-12-04T12:43:27;5.17;;;4.30;;
10904;SDS011;5505;51.450;9.254;2023-12-04T12:46:17;5.93;;;3.17;;
10904;SDS011;5505;51.450;9.254;2023-12-04T12:49:04;3.83;;;2.90;;
10904;SDS011;5505;51.450;9.254;2023-12-04T12:51:52;5.93;;;4.10;;
10904;SDS011;5505;51.450;9.254;2023-12-04T12:54:41;5.23;;;4.07;;
10904;SDS011;5505;51.450;9.254;2023-12-04T12:57:29;4.73;;;4.23;;
10904;SDS011;5505;51.450;9.254;2023-12-04T13:00:16;5.03;;;4.40;;
10904;SDS011;5505;51.450;9.254;2023-12-04T13:03:05;5.00;;;3.53;;
10904;SDS011;5505;51.450;9.254;2023-12-04T13:06:00;5.27;;;3.53;;
10904;SDS011;5505;51.450;9.254;2023-12-04T13:08:47;4.70;;;3.77;;
10904;SDS011;5505;51.450;9.254;2023-12-04T13:11:34;5.07;;;3.77;;
10904;SDS011;5505;51.450;9.254;2023-12-04T13:14:22;4.57;;;3.30;;
10904;SDS011;5505;51.450;9.254;2023-12-04T13:17:09;5.83;;;4.10;;
10904;SDS011;5505;51.450;9.254;2023-12-04T13:19:58;5.37;;;3.73;;
10904;SDS011;5505;51.450;9.254;2023-12-04T13:22:45;4.00;;;3.30;;
10904;SDS011;5505;51.450;9.254;2023-12-04T13:25:32;5.97;;;4.20;;
10904;SDS011;5505;51.450;9.254;2023-12-04T13:28:19;6.50;;;4.70;;
10904;SDS011;5505;51.450;9.254;2023-12-04T13:31:07;4.67;;;3.67;;
10904;SDS011;5505;51.450;9.254;2023-12-04T13:33:54;4.13;;;2.93;;
10904;SDS011;5505;51.450;9.254;2023-12-04T13:36:43;4.50;;;3.40;;
10904;SDS011;5505;51.450;9.254;2023-12-04T13:39:30;4.63;;;3.67;;
10904;SDS011;5505;51.450;9.254;2023-12-04T13:42:32;4.27;;;3.27;;
10904;SDS011;5505;51.450;9.254;2023-12-04T13:45:37;4.63;;;3.37;;
10904;SDS011;5505;51.450;9.254;2023-12-04T13:48:24;5.13;;;3.90;;
10904;SDS011;5505;51.450;9.254;2023-12-04T13:51:12;6.93;;;4.33;;
10904;SDS011;5505;51.450;9.254;2023-12-04T13:54:00;4.90;;;3.33;;
10904;SDS011;5505;51.450;9.254;2023-12-04T13:56:58;6.20;;;4.97;;
10904;SDS011;5505;51.450;9.254;2023-12-04T13:59:46;5.17;;;3.53;;
10904;SDS011;5505;51.450;9.254;2023-12-04T14:02:33;5.80;;;4.13;;
10904;SDS011;5505;51.450;9.254;2023-12-04T14:05:22;6.13;;;3.97;;
10904;SDS011;5505;51.450;9.254;2023-12-04T14:08:09;5.57;;;4.57;;
10904;SDS011;5505;51.450;9.254;2023-12-04T14:10:58;6.67;;;4.73;;
10904;SDS011;5505;51.450;9.254;2023-12-04T14:13:46;8.27;;;3.73;;
10904;SDS011;5505;51.450;9.254;2023-12-04T14:16:33;4.87;;;3.97;;
10904;SDS011;5505;51.450;9.254;2023-12-04T14:19:20;5.50;;;4.03;;
10904;SDS011;5505;51.450;9.254;2023-12-04T14:22:08;5.67;;;4.60;;
10904;SDS011;5505;51.450;9.254;2023-12-04T14:24:55;5.57;;;3.90;;
10904;SDS011;5505;51.450;9.254;2023-12-04T14:27:43;4.73;;;3.50;;
10904;SDS011;5505;51.450;9.254;2023-12-04T14:30:31;5.57;;;4.13;;
10904;SDS011;5505;51.450;9.254;2023-12-04T14:33:18;5.27;;;3.70;;
10904;SDS011;5505;51.450;9.254;2023-12-04T14:36:05;6.13;;;4.03;;
10904;SDS011;5505;51.450;9.254;2023-12-04T14:38:52;5.23;;;3.77;;
10904;SDS011;5505;51.450;9.254;2023-12-04T14:41:39;5.00;;;3.83;;
10904;SDS011;5505;51.450;9.254;2023-12-04T14:44:28;4.47;;;4.03;;
10904;SDS011;5505;51.450;9.254;2023-12-04T14:47:15;4.30;;;3.43;;
10904;SDS011;5505;51.450;9.254;2023-12-04T14:50:03;4.83;;;3.73;;
10904;SDS011;5505;51.450;9.254;2023-12-04T14:52:51;5.20;;;3.70;;
10904;SDS011;5505;51.450;9.254;2023-12-04T14:55:41;6.80;;;4.43;;
10904;SDS011;5505;51.450;9.254;2023-12-04T14:58:45;5.63;;;3.77;;
10904;SDS011;5505;51.450;9.254;2023-12-04T15:01:48;6.10;;;4.10;;
10904;SDS011;5505;51.450;9.254;2023-12-04T15:04:52;5.20;;;3.73;;
10904;SDS011;5505;51.450;9.254;2023-12-04T15:07:53;5.60;;;4.00;;
10904;SDS011;5505;51.450;9.254;2023-12-04T15:11:11;9.03;;;4.10;;
10904;SDS011;5505;51.450;9.254;2023-12-04T15:14:09;5.07;;;3.90;;
10904;SDS011;5505;51.450;9.254;2023-12-04T15:17:08;6.20;;;4.20;;
10904;SDS011;5505;51.450;9.254;2023-12-04T15:20:03;5.20;;;3.70;;
10904;SDS011;5505;51.450;9.254;2023-12-04T15:23:05;5.13;;;4.00;;
10904;SDS011;5505;51.450;9.254;2023-12-04T15:25:52;4.63;;;3.93;;
10904;SDS011;5505;51.450;9.254;2023-12-04T15:28:38;6.80;;;4.33;;
10904;SDS011;5505;51.450;9.254;2023-12-04T15:31:25;7.97;;;5.00;;
10904;SDS011;5505;51.450;9.254;2023-12-04T15:34:13;5.83;;;4.30;;
10904;SDS011;5505;51.450;9.254;2023-12-04T15:37:00;5.53;;;4.03;;
10904;SDS011;5505;51.450;9.254;2023-12-04T15:39:47;5.33;;;3.40;;
10904;SDS011;5505;51.450;9.254;2023-12-04T15:42:35;5.17;;;3.97;;
10904;SDS011;5505;51.450;9.254;2023-12-04T15:45:21;3.97;;;2.77;;
10904;SDS011;5505;51.450;9.254;2023-12-04T15:48:08;5.13;;;3.57;;
10904;SDS011;5505;51.450;9.254;2023-12-04T15:50:57;4.30;;;3.27;;
10904;SDS011;5505;51.450;9.254;2023-12-04T15:53:44;4.13;;;3.43;;
10904;SDS011;5505;51.450;9.254;2023-12-04T15:56:31;4.10;;;3.30;;
10904;SDS011;5505;51.450;9.254;2023-12-04T15:59:17;4.53;;;3.70;;
10904;SDS011;5505;51.450;9.254;2023-12-04T16:02:04;5.20;;;3.43;;
10904;SDS011;5505;51.450;9.254;2023-12-04T16:04:51;5.10;;;3.73;;
10904;SDS011;5505;51.450;9.254;2023-12-04T16:07:40;6.77;;;3.33;;
10904;SDS011;5505;51.450;9.254;2023-12-04T16:10:27;4.63;;;3.43;;
10904;SDS011;5505;51.450;9.254;2023-12-04T16:13:15;6.70;;;3.00;;
10904;SDS011;5505;51.450;9.254;2023-12-04T16:16:02;5.80;;;4.30;;
10904;SDS011;5505;51.450;9.254;2023-12-04T16:18:50;4.57;;;3.70;;
10904;SDS011;5505;51.450;9.254;2023-12-04T16:21:37;4.77;;;3.20;;
10904;SDS011;5505;51.450;9.254;2023-12-04T16:24:26;3.47;;;2.97;;
10904;SDS011;5505;51.450;9.254;2023-12-04T16:27:13;5.13;;;3.93;;
10904;SDS011;5505;51.450;9.254;2023-12-04T16:30:00;5.87;;;3.90;;
10904;SDS011;5505;51.450;9.254;2023-12-04T16:32:48;5.20;;;4.07;;
10904;SDS011;5505;51.450;9.254;2023-12-04T16:35:37;6.57;;;4.80;;
10904;SDS011;5505;51.450;9.254;2023-12-04T16:38:24;6.70;;;4.40;;
10904;SDS011;5505;51.450;9.254;2023-12-04T16:41:14;6.97;;;3.73;;
10904;SDS011;5505;51.450;9.254;2023-12-04T16:44:01;8.03;;;5.40;;
10904;SDS011;5505;51.450;9.254;2023-12-04T16:46:49;5.93;;;4.20;;
10904;SDS011;5505;51.450;9.254;2023-12-04T16:49:40;5.27;;;3.90;;
10904;SDS011;5505;51.450;9.254;2023-12-04T16:52:27;6.00;;;4.40;;
10904;SDS011;5505;51.450;9.254;2023-12-04T16:55:15;4.10;;;3.17;;
10904;SDS011;5505;51.450;9.254;2023-12-04T16:58:03;6.33;;;4.20;;
10904;SDS011;5505;51.450;9.254;2023-12-04T17:00:52;5.83;;;4.10;;
10904;SDS011;5505;51.450;9.254;2023-12-04T17:03:39;3.30;;;2.40;;